Time;durP1;ratioP1;P1;durP2;ratioP2;P2;SDS_P1;SDS_P2;PMS_P1;PMS_P2;Temp;Humidity;BMP_temperature;BMP_pressure;BME280_temperature;BME280_humidity;BME280_pressure;Samples;Min_cycle;Max_cycle;Signal;HPM_P1;HPM_P2
2023/01/21 00:01:13;;;;;;;4.10;2.80;;;6.20;96.70;;;;;;4948971;28;20049;-74
2023/01/21 00:03:41;;;;;;;3.33;2.30;;;6.20;96.70;;;;;;4963712;28;20047;-73
2023/01/21 00:06:13;;;;;;;3.35;2.20;;;6.20;96.70;;;;;;4956812;28;20590;-73
2023/01/21 00:08:42;;;;;;;3.47;2.35;;;6.20;96.70;;;;;;4944688;28;20750;-73
2023/01/21 00:11:13;;;;;;;3.78;2.05;;;6.20;96.70;;;;;;4944861;28;20049;-73
2023/01/21 00:13:41;;;;;;;3.60;2.13;;;6.10;96.70;;;;;;4947313;28;20557;-73
2023/01/21 00:16:11;;;;;;;3.63;2.50;;;6.20;96.70;;;;;;4946052;28;20047;-73
2023/01/21 00:18:39;;;;;;;3.67;2.35;;;6.10;96.70;;;;;;4947131;28;20051;-74
2023/01/21 00:21:07;;;;;;;3.75;2.40;;;6.10;96.70;;;;;;4944247;28;20050;-74
2023/01/21 00:23:37;;;;;;;6.22;3.42;;;6.10;96.70;;;;;;4961712;28;20580;-74
2023/01/21 00:26:06;;;;;;;6.53;3.30;;;6.10;96.70;;;;;;4962223;28;20042;-73
2023/01/21 00:28:35;;;;;;;4.57;3.05;;;6.10;96.70;;;;;;4964064;28;20050;-73
2023/01/21 00:31:05;;;;;;;4.88;3.08;;;6.10;96.70;;;;;;4962024;28;20047;-74
2023/01/21 00:33:33;;;;;;;4.65;2.80;;;6.10;96.70;;;;;;4945847;28;20134;-73
2023/01/21 00:36:03;;;;;;;4.65;3.20;;;6.10;96.70;;;;;;4944878;28;20039;-73
2023/01/21 00:38:31;;;;;;;5.95;4.13;;;6.10;96.70;;;;;;4943083;28;20051;-73
2023/01/21 00:41:02;;;;;;;5.03;3.40;;;6.00;96.70;;;;;;4949671;28;20558;-73
2023/01/21 00:43:30;;;;;;;4.07;3.28;;;6.00;96.70;;;;;;4943962;28;20047;-73
2023/01/21 00:45:58;;;;;;;5.35;3.17;;;6.00;96.70;;;;;;4944880;28;20831;-73
2023/01/21 00:48:27;;;;;;;4.13;3.10;;;5.90;96.70;;;;;;4951288;28;20130;-73
2023/01/21 00:50:59;;;;;;;4.30;2.63;;;5.90;96.70;;;;;;4950264;28;20146;-73
2023/01/21 00:53:29;;;;;;;2.88;2.20;;;5.90;96.70;;;;;;4982776;28;20096;-73
2023/01/21 00:56:03;;;;;;;3.63;2.45;;;5.90;96.70;;;;;;4980705;28;20049;-73
2023/01/21 00:58:32;;;;;;;3.70;2.65;;;5.90;96.70;;;;;;4953536;28;20047;-73
2023/01/21 01:01:01;;;;;;;3.63;2.63;;;5.90;96.70;;;;;;4949737;28;20039;-73
2023/01/21 01:03:30;;;;;;;3.03;2.50;;;5.90;96.70;;;;;;4955598;28;20086;-73
2023/01/21 01:06:03;;;;;;;5.55;3.97;;;5.90;96.70;;;;;;4963102;28;20042;-73
2023/01/21 01:08:31;;;;;;;3.72;2.47;;;5.80;96.70;;;;;;4969621;28;20046;-74
2023/01/21 01:10:59;;;;;;;3.25;2.53;;;5.90;96.70;;;;;;4968349;28;20515;-73
2023/01/21 01:13:29;;;;;;;4.18;2.55;;;5.80;96.70;;;;;;4954315;28;20043;-73
2023/01/21 01:15:57;;;;;;;5.13;2.65;;;5.80;96.70;;;;;;4957286;28;20178;-73
2023/01/21 01:18:26;;;;;;;3.60;2.83;;;5.80;96.70;;;;;;4954013;28;20809;-74
2023/01/21 01:20:54;;;;;;;4.68;2.60;;;5.80;96.70;;;;;;4949747;28;20663;-73
2023/01/21 01:23:23;;;;;;;6.07;2.42;;;5.90;96.70;;;;;;4966796;28;20058;-73
2023/01/21 01:25:55;;;;;;;4.50;3.22;;;5.80;96.70;;;;;;4967356;28;20517;-73
2023/01/21 01:28:23;;;;;;;3.80;2.33;;;5.80;96.70;;;;;;4951354;28;20594;-73
2023/01/21 01:30:53;;;;;;;3.95;2.38;;;5.80;96.70;;;;;;4951513;28;20043;-73
2023/01/21 01:33:22;;;;;;;2.95;2.20;;;5.80;96.70;;;;;;4964384;28;20054;-74
2023/01/21 01:35:50;;;;;;;3.92;2.20;;;5.90;96.70;;;;;;4969664;28;20042;-73
2023/01/21 01:38:20;;;;;;;3.28;2.00;;;5.90;96.70;;;;;;4959031;28;20126;-72
2023/01/21 01:40:49;;;;;;;4.32;1.92;;;5.90;96.70;;;;;;4951205;28;20047;-72
2023/01/21 01:43:19;;;;;;;2.92;2.03;;;5.90;96.70;;;;;;4963924;28;20126;-73
2023/01/21 01:45:48;;;;;;;2.05;1.73;;;5.90;96.70;;;;;;4968437;28;20058;-73
2023/01/21 01:48:21;;;;;;;2.78;1.48;;;5.90;96.70;;;;;;4970249;28;20741;-73
2023/01/21 01:50:49;;;;;;;2.47;1.80;;;5.90;96.70;;;;;;4965112;28;20681;-74
2023/01/21 01:53:18;;;;;;;2.10;1.50;;;5.90;96.70;;;;;;4961229;28;20043;-73
2023/01/21 01:55:47;;;;;;;1.55;1.40;;;5.90;96.70;;;;;;4962695;28;20057;-73
2023/01/21 01:58:18;;;;;;;2.95;1.42;;;5.90;96.70;;;;;;4967319;28;20054;-73
2023/01/21 02:00:46;;;;;;;3.08;1.60;;;5.90;96.70;;;;;;4967659;28;20049;-73
2023/01/21 02:06:03;;;;;;;2.88;1.35;;;5.90;96.70;;;;;;4957330;28;20130;-72
2023/01/21 02:08:33;;;;;;;2.35;1.25;;;5.90;96.70;;;;;;4946826;28;20419;-73
2023/01/21 02:11:01;;;;;;;2.30;1.67;;;5.90;96.70;;;;;;4955384;28;20098;-72
2023/01/21 02:13:32;;;;;;;3.70;1.55;;;5.90;96.70;;;;;;4960484;28;20457;-73
2023/01/21 02:16:20;;;;;;;2.35;1.40;;;5.90;96.70;;;;;;4960669;28;20049;-72
2023/01/21 02:18:56;;;;;;;1.85;1.38;;;5.90;96.70;;;;;;4948748;28;20888;-72
2023/01/21 02:21:48;;;;;;;2.70;1.70;;;5.90;96.70;;;;;;4946464;28;20047;-73
2023/01/21 02:24:45;;;;;;;3.10;1.42;;;5.90;96.70;;;;;;4959740;28;20042;-73
2023/01/21 02:27:31;;;;;;;3.53;1.60;;;6.00;96.70;;;;;;4966090;28;20050;-74
2023/01/21 02:30:35;;;;;;;2.03;1.38;;;5.90;96.70;;;;;;4963792;28;20038;-73
2023/01/21 02:33:45;;;;;;;3.88;1.70;;;5.90;96.70;;;;;;4955287;28;20040;-74
2023/01/21 02:36:29;;;;;;;4.07;1.73;;;5.90;96.70;;;;;;4965628;28;20050;-73
2023/01/21 02:39:02;;;;;;;2.90;1.40;;;5.80;96.70;;;;;;4964367;28;20047;-73
2023/01/21 02:41:42;;;;;;;2.35;1.77;;;5.90;96.70;;;;;;4964490;28;20468;-73
2023/01/21 02:44:16;;;;;;;2.47;1.70;;;5.90;96.70;;;;;;4966431;28;20516;-73
2023/01/21 02:46:49;;;;;;;1.73;1.40;;;5.80;96.70;;;;;;4955571;28;20047;-73
2023/01/21 02:49:23;;;;;;;3.33;1.67;;;5.80;96.70;;;;;;4952157;28;20047;-72
2023/01/21 02:51:51;;;;;;;2.40;1.50;;;5.80;96.70;;;;;;4946749;28;20431;-73
2023/01/21 02:54:50;;;;;;;2.42;1.90;;;5.80;96.70;;;;;;4946061;28;20490;-72
2023/01/21 02:57:34;;;;;;;2.10;1.60;;;5.80;96.70;;;;;;4944771;28;20069;-73
2023/01/21 03:00:08;;;;;;;2.35;1.77;;;5.80;96.70;;;;;;4948545;28;20055;-73
2023/01/21 03:03:00;;;;;;;2.40;1.45;;;5.80;96.70;;;;;;4961677;28;20410;-73
2023/01/21 03:05:40;;;;;;;2.33;1.30;;;5.80;96.70;;;;;;4961310;28;20058;-73
2023/01/21 03:08:15;;;;;;;2.58;1.60;;;5.70;96.70;;;;;;4952826;28;20537;-73
2023/01/21 03:10:51;;;;;;;2.50;1.55;;;5.70;96.70;;;;;;4947185;28;20102;-73
2023/01/21 03:19:05;;;;;;;2.53;1.48;;;5.70;96.70;;;;;;4944873;28;20047;-73
2023/01/21 03:21:35;;;;;;;3.13;1.83;;;5.70;96.70;;;;;;4954420;28;20153;-73
2023/01/21 03:24:05;;;;;;;2.25;1.52;;;5.70;96.70;;;;;;4955193;28;20602;-73
2023/01/21 03:26:37;;;;;;;2.47;1.50;;;5.70;96.70;;;;;;4981361;28;20058;-74
2023/01/21 03:29:09;;;;;;;2.60;1.75;;;5.70;96.70;;;;;;4959580;28;20043;-73
2023/01/21 03:31:41;;;;;;;2.15;1.60;;;5.60;96.70;;;;;;4948921;28;20063;-73
2023/01/21 03:34:11;;;;;;;2.03;1.30;;;5.70;96.70;;;;;;4944121;28;20466;-73
2023/01/21 03:36:47;;;;;;;2.70;1.40;;;5.60;96.70;;;;;;4948616;28;20055;-73
2023/01/21 03:39:20;;;;;;;1.98;1.45;;;5.60;96.70;;;;;;4970531;28;20051;-73
2023/01/21 03:41:48;;;;;;;2.75;1.40;;;5.60;96.70;;;;;;4963325;28;20074;-74
2023/01/21 03:44:16;;;;;;;2.95;1.25;;;5.60;96.70;;;;;;4963103;28;20039;-74
2023/01/21 03:46:49;;;;;;;2.20;1.35;;;5.60;96.70;;;;;;4950321;28;20499;-74
2023/01/21 03:49:21;;;;;;;1.77;1.30;;;5.60;96.70;;;;;;4951566;28;20508;-74
2023/01/21 03:51:54;;;;;;;2.88;1.40;;;5.60;96.70;;;;;;4951583;28;20039;-74
2023/01/21 03:54:22;;;;;;;1.80;1.10;;;5.60;96.70;;;;;;4945488;28;20149;-74
2023/01/21 03:56:50;;;;;;;1.73;1.10;;;5.50;96.70;;;;;;4945987;28;20047;-74
2023/01/21 03:59:18;;;;;;;2.35;1.15;;;5.50;96.70;;;;;;4957715;28;20165;-74
2023/01/21 04:01:46;;;;;;;2.63;1.00;;;5.40;96.70;;;;;;4944368;28;20043;-74
2023/01/21 04:04:14;;;;;;;1.10;0.90;;;5.40;96.70;;;;;;4953003;28;20051;-74
2023/01/21 04:06:42;;;;;;;1.70;1.15;;;5.50;96.70;;;;;;4950641;28;20050;-75
2023/01/21 04:09:11;;;;;;;1.45;0.90;;;5.40;96.70;;;;;;4954179;28;20113;-74
2023/01/21 04:11:39;;;;;;;1.25;0.85;;;5.40;96.70;;;;;;4950367;28;20059;-74
2023/01/21 04:14:07;;;;;;;2.45;0.88;;;5.50;96.70;;;;;;4963945;28;20065;-74
2023/01/21 04:16:35;;;;;;;1.52;0.90;;;5.50;96.70;;;;;;4957406;28;20465;-74
2023/01/21 04:19:04;;;;;;;1.40;0.70;;;5.40;96.70;;;;;;4953376;28;20443;-74
2023/01/21 04:21:32;;;;;;;1.40;0.73;;;5.40;96.70;;;;;;4943172;28;20043;-74
2023/01/21 04:23:59;;;;;;;1.98;0.98;;;5.50;96.70;;;;;;4942476;28;20749;-74
2023/01/21 04:26:29;;;;;;;3.00;0.88;;;5.50;96.70;;;;;;4947708;28;21490;-74
2023/01/21 04:28:57;;;;;;;1.23;0.70;;;5.50;96.70;;;;;;4961015;28;20101;-75
2023/01/21 04:31:25;;;;;;;1.15;0.77;;;5.50;96.70;;;;;;4956739;28;20453;-74
2023/01/21 04:33:53;;;;;;;1.48;0.75;;;5.40;96.70;;;;;;4943829;28;20398;-74
2023/01/21 04:36:20;;;;;;;1.60;0.90;;;5.40;96.70;;;;;;4943081;28;20583;-74
2023/01/21 04:38:48;;;;;;;1.45;1.15;;;5.40;96.70;;;;;;4943028;28;20143;-74
2023/01/21 04:41:16;;;;;;;1.15;0.75;;;5.50;96.70;;;;;;4950278;28;20529;-74
2023/01/21 04:43:46;;;;;;;0.90;0.60;;;5.50;96.70;;;;;;4951727;28;20756;-74
2023/01/21 04:46:14;;;;;;;1.88;0.90;;;5.50;96.70;;;;;;4950103;28;20078;-74
2023/01/21 04:48:42;;;;;;;1.15;0.82;;;5.50;96.70;;;;;;4959847;28;20413;-74
2023/01/21 04:51:10;;;;;;;2.47;1.05;;;5.50;96.70;;;;;;4965148;28;20101;-74
2023/01/21 04:53:38;;;;;;;1.60;0.95;;;5.50;96.70;;;;;;4936004;28;20509;-74
2023/01/21 04:56:06;;;;;;;1.45;0.80;;;5.60;96.70;;;;;;4943936;28;20177;-74
2023/01/21 04:58:34;;;;;;;1.20;0.60;;;5.60;96.70;;;;;;4946298;28;20066;-74
2023/01/21 05:01:04;;;;;;;0.90;0.70;;;5.60;96.70;;;;;;4947993;28;20055;-74
2023/01/21 05:03:32;;;;;;;0.80;0.70;;;5.70;96.70;;;;;;4960695;28;20051;-74
2023/01/21 05:06:00;;;;;;;1.13;0.80;;;5.70;96.70;;;;;;4961549;28;20101;-74
2023/01/21 05:08:28;;;;;;;1.27;0.73;;;5.70;96.70;;;;;;4952800;28;20051;-75
2023/01/21 05:10:55;;;;;;;1.40;0.90;;;5.70;96.70;;;;;;4957091;28;20344;-74
2023/01/21 05:13:23;;;;;;;1.42;0.88;;;5.60;96.70;;;;;;4962369;28;20058;-75
2023/01/21 05:15:52;;;;;;;1.55;0.90;;;5.60;96.70;;;;;;4961910;28;20126;-74
2023/01/21 05:18:22;;;;;;;1.40;0.80;;;5.60;96.70;;;;;;4943577;28;20399;-74
2023/01/21 05:20:49;;;;;;;2.67;0.95;;;5.60;96.70;;;;;;4935304;28;20494;-74
2023/01/21 05:23:17;;;;;;;1.25;0.70;;;5.60;96.70;;;;;;4949439;28;20106;-74
2023/01/21 05:25:48;;;;;;;1.40;0.77;;;5.60;96.70;;;;;;4943552;28;20138;-73
2023/01/21 05:28:16;;;;;;;1.35;0.80;;;5.60;96.70;;;;;;4944910;28;20520;-73
2023/01/21 05:30:44;;;;;;;1.83;0.70;;;5.60;96.70;;;;;;4945134;28;20043;-73
2023/01/21 05:33:12;;;;;;;0.90;0.68;;;5.50;96.70;;;;;;4962997;28;20094;-73
2023/01/21 05:35:41;;;;;;;0.70;0.60;;;5.50;96.70;;;;;;4958684;28;20150;-73
2023/01/21 05:38:09;;;;;;;2.05;0.68;;;5.50;96.70;;;;;;4959351;28;20500;-73
2023/01/21 05:40:37;;;;;;;0.90;0.55;;;5.50;96.70;;;;;;4966834;28;20039;-73
2023/01/21 05:43:05;;;;;;;1.45;1.15;;;5.40;96.70;;;;;;4952705;28;20126;-73
2023/01/21 05:45:33;;;;;;;1.10;0.75;;;5.40;96.70;;;;;;4961911;28;20069;-73
2023/01/21 05:48:01;;;;;;;1.23;0.60;;;5.40;96.70;;;;;;4956966;28;20046;-74
2023/01/21 05:50:29;;;;;;;0.85;0.65;;;5.50;96.70;;;;;;4965336;28;20121;-74
2023/01/21 05:52:59;;;;;;;0.85;0.60;;;5.50;96.70;;;;;;4966399;28;20153;-74
2023/01/21 05:55:26;;;;;;;1.33;0.80;;;5.50;96.70;;;;;;4967245;28;20039;-74
2023/01/21 05:57:54;;;;;;;3.17;0.90;;;5.40;96.70;;;;;;4949673;28;20070;-74
2023/01/21 06:00:22;;;;;;;1.23;0.68;;;5.40;96.70;;;;;;4954567;28;20051;-73
2023/01/21 06:02:50;;;;;;;1.23;0.80;;;5.40;96.70;;;;;;4958868;28;20133;-73
2023/01/21 06:05:18;;;;;;;1.05;0.60;;;5.40;96.70;;;;;;4965147;28;20090;-74
2023/01/21 06:07:46;;;;;;;2.08;0.75;;;5.40;96.70;;;;;;4964593;28;20056;-73
2023/01/21 06:10:16;;;;;;;1.25;0.80;;;5.30;96.70;;;;;;4964870;28;20053;-73
2023/01/21 06:12:45;;;;;;;1.95;1.02;;;5.40;96.70;;;;;;4948153;28;20043;-73
2023/01/21 06:15:13;;;;;;;1.48;0.80;;;5.30;96.70;;;;;;4963097;28;20053;-73
2023/01/21 06:17:41;;;;;;;1.70;0.82;;;5.30;96.70;;;;;;4958730;28;20111;-73
2023/01/21 06:20:11;;;;;;;1.70;0.88;;;5.30;96.70;;;;;;4954736;28;20035;-72
2023/01/21 06:22:39;;;;;;;2.67;1.00;;;5.30;96.70;;;;;;4960981;28;20078;-73
2023/01/21 06:25:09;;;;;;;3.85;1.30;;;5.30;96.70;;;;;;4965026;28;20050;-74
2023/01/21 06:27:39;;;;;;;1.83;0.80;;;5.20;96.70;;;;;;4947371;28;20047;-73
2023/01/21 06:30:09;;;;;;;2.90;1.10;;;5.30;96.70;;;;;;4948337;28;20050;-75
2023/01/21 06:32:38;;;;;;;2.45;1.48;;;5.30;96.70;;;;;;4958857;28;20049;-71
2023/01/21 06:35:06;;;;;;;2.33;1.10;;;5.30;96.70;;;;;;4964561;28;20051;-74
2023/01/21 06:37:34;;;;;;;2.20;1.33;;;5.30;96.70;;;;;;4964017;28;20043;-72
2023/01/21 06:40:03;;;;;;;2.47;1.35;;;5.30;96.70;;;;;;4964976;28;20051;-72
2023/01/21 06:42:31;;;;;;;2.33;1.10;;;5.30;96.70;;;;;;4958950;28;20047;-72
2023/01/21 06:45:01;;;;;;;2.90;1.27;;;5.30;96.70;;;;;;4945001;28;20078;-72
2023/01/21 06:47:30;;;;;;;3.30;1.52;;;5.40;96.70;;;;;;4941624;29;20457;-72
2023/01/21 06:49:58;;;;;;;2.58;1.50;;;5.40;96.70;;;;;;4954753;28;20569;-73
2023/01/21 06:52:26;;;;;;;2.67;1.58;;;5.30;96.70;;;;;;4945690;28;20564;-72
2023/01/21 06:54:54;;;;;;;4.57;1.55;;;5.30;96.70;;;;;;4948444;28;20413;-72
2023/01/21 06:57:23;;;;;;;2.90;1.48;;;5.30;96.70;;;;;;4951676;28;20130;-73
2023/01/21 06:59:51;;;;;;;3.42;1.92;;;5.40;96.70;;;;;;4955666;28;20070;-74
2023/01/21 07:02:21;;;;;;;2.85;1.85;;;5.30;96.70;;;;;;4956372;28;20039;-73
2023/01/21 07:04:50;;;;;;;3.10;2.00;;;5.30;96.70;;;;;;4979562;28;20531;-73
2023/01/21 07:07:18;;;;;;;3.10;1.70;;;5.40;96.70;;;;;;4954019;28;20417;-74
2023/01/21 07:09:46;;;;;;;5.07;1.75;;;5.30;96.70;;;;;;4944962;28;20051;-73
2023/01/21 07:12:14;;;;;;;3.90;2.08;;;5.30;96.70;;;;;;4946659;28;20051;-72
2023/01/21 07:14:43;;;;;;;3.08;1.30;;;5.30;96.70;;;;;;4947723;28;20379;-72
2023/01/21 07:17:11;;;;;;;5.30;2.45;;;5.30;96.70;;;;;;4953392;28;20051;-72
2023/01/21 07:19:41;;;;;;;2.97;1.70;;;5.30;96.70;;;;;;4963092;28;20043;-77
2023/01/21 07:22:09;;;;;;;3.88;1.90;;;5.30;96.70;;;;;;4943103;28;20059;-72
2023/01/21 07:24:37;;;;;;;3.35;1.50;;;5.30;96.70;;;;;;4943673;28;20402;-73
2023/01/21 07:27:06;;;;;;;6.25;1.95;;;5.40;96.70;;;;;;4943243;28;20062;-73
2023/01/21 07:29:34;;;;;;;4.72;2.35;;;5.40;96.70;;;;;;4946367;28;20058;-72
2023/01/21 07:32:03;;;;;;;4.95;2.08;;;5.40;96.70;;;;;;4951676;28;20109;-73
2023/01/21 07:34:31;;;;;;;3.75;1.98;;;5.40;96.70;;;;;;4944331;28;20039;-75
2023/01/21 07:37:01;;;;;;;5.63;2.40;;;5.50;96.70;;;;;;4963031;28;20057;-74
2023/01/21 07:39:29;;;;;;;3.20;1.90;;;5.40;96.70;;;;;;4963042;28;20141;-74
2023/01/21 07:41:57;;;;;;;4.07;2.50;;;5.40;96.70;;;;;;4959830;28;20046;-75
2023/01/21 07:44:26;;;;;;;4.32;2.38;;;5.40;96.70;;;;;;4945543;28;20043;-75
2023/01/21 07:46:54;;;;;;;5.95;2.67;;;5.50;96.70;;;;;;4943551;28;20584;-71
2023/01/21 07:49:23;;;;;;;3.90;2.67;;;5.50;96.70;;;;;;4952849;28;20141;-73
2023/01/21 07:51:56;;;;;;;4.38;2.92;;;5.50;96.70;;;;;;4952054;28;20054;-73
2023/01/21 07:54:26;;;;;;;6.95;3.00;;;5.50;96.70;;;;;;4943952;28;20510;-72
2023/01/21 07:56:54;;;;;;;5.30;3.13;;;5.60;96.70;;;;;;4946545;28;20086;-74
2023/01/21 07:59:22;;;;;;;6.65;3.00;;;5.60;96.70;;;;;;4950599;28;20049;-74
2023/01/21 08:01:51;;;;;;;5.80;3.15;;;5.60;96.70;;;;;;4967152;28;20781;-75
2023/01/21 08:04:19;;;;;;;23.67;14.02;;;5.70;96.70;;;;;;4944216;28;20039;-75
2023/01/21 08:06:47;;;;;;;10.60;6.22;;;5.60;96.70;;;;;;4944919;28;20043;-74
2023/01/21 08:09:15;;;;;;;9.00;4.82;;;5.60;96.70;;;;;;4943132;28;20043;-74
2023/01/21 08:11:45;;;;;;;13.00;6.65;;;5.70;96.70;;;;;;4952417;28;20043;-75
2023/01/21 08:14:13;;;;;;;10.15;6.25;;;5.50;96.70;;;;;;4944646;28;20043;-77
2023/01/21 08:16:41;;;;;;;9.90;5.50;;;5.30;96.70;;;;;;4955671;28;20049;-77
2023/01/21 08:19:10;;;;;;;12.88;5.80;;;5.40;96.70;;;;;;4944218;28;20449;-76
2023/01/21 08:21:40;;;;;;;15.82;6.82;;;5.40;96.70;;;;;;4943487;28;20480;-75
2023/01/21 08:24:09;;;;;;;13.35;6.22;;;5.30;96.70;;;;;;4945629;28;20053;-75
2023/01/21 08:26:37;;;;;;;12.90;5.18;;;5.20;96.70;;;;;;4952794;28;20047;-74
2023/01/21 08:29:07;;;;;;;10.20;4.53;;;5.30;96.70;;;;;;4955696;28;20083;-74
2023/01/21 08:31:35;;;;;;;8.88;4.28;;;5.30;96.70;;;;;;4962752;28;20058;-74
2023/01/21 08:34:03;;;;;;;10.35;4.43;;;5.30;96.70;;;;;;4963968;28;20043;-74
2023/01/21 08:36:31;;;;;;;5.93;3.63;;;5.30;96.70;;;;;;4956361;28;20043;-75
2023/01/21 08:39:05;;;;;;;8.40;3.90;;;5.40;96.70;;;;;;4954028;28;20624;-75
2023/01/21 08:41:33;;;;;;;11.60;4.10;;;5.50;96.70;;;;;;4962086;28;20055;-74
2023/01/21 08:44:01;;;;;;;9.40;3.60;;;5.60;96.70;;;;;;4950328;28;20047;-74
2023/01/21 08:46:31;;;;;;;10.25;3.90;;;5.60;96.70;;;;;;4950790;28;20042;-75
2023/01/21 08:48:59;;;;;;;15.77;7.72;;;5.60;96.70;;;;;;4959004;28;20046;-75
2023/01/21 08:51:27;;;;;;;13.23;7.03;;;5.70;96.70;;;;;;4962615;28;20078;-74
2023/01/21 08:53:55;;;;;;;9.30;6.00;;;5.70;96.70;;;;;;4965543;28;20486;-74
2023/01/21 08:56:23;;;;;;;8.77;5.22;;;5.70;96.70;;;;;;4960507;28;20047;-73
2023/01/21 08:58:54;;;;;;;9.20;5.50;;;5.80;96.70;;;;;;4944872;28;20039;-74
2023/01/21 09:01:24;;;;;;;10.38;6.07;;;5.90;96.70;;;;;;4951511;28;20046;-74
2023/01/21 09:03:58;;;;;;;9.43;5.70;;;6.00;96.70;;;;;;4968924;28;20467;-74
2023/01/21 09:06:28;;;;;;;10.13;6.63;;;6.10;96.70;;;;;;4951724;28;20042;-74
2023/01/21 09:08:57;;;;;;;11.77;6.90;;;6.10;96.70;;;;;;4944423;28;20745;-74
2023/01/21 09:11:27;;;;;;;12.48;6.32;;;6.20;96.70;;;;;;4949089;28;20055;-74
2023/01/21 09:14:02;;;;;;;10.57;6.95;;;6.30;96.70;;;;;;4958605;28;20051;-75
2023/01/21 09:16:30;;;;;;;16.02;8.65;;;6.30;96.70;;;;;;4957526;28;20569;-75
2023/01/21 09:19:00;;;;;;;9.45;6.65;;;6.40;96.70;;;;;;4948267;28;20086;-74
2023/01/21 09:21:29;;;;;;;17.10;8.70;;;6.30;96.70;;;;;;4954175;28;20153;-74
2023/01/21 09:23:57;;;;;;;14.45;9.43;;;6.40;96.70;;;;;;4953215;28;20486;-74
2023/01/21 09:26:25;;;;;;;11.13;6.85;;;6.40;96.70;;;;;;4946001;29;20568;-73
2023/01/21 09:28:55;;;;;;;9.57;6.10;;;6.40;96.70;;;;;;4963645;28;20050;-74
2023/01/21 09:31:24;;;;;;;11.35;6.35;;;6.50;96.70;;;;;;4970589;28;20205;-74
2023/01/21 09:33:55;;;;;;;10.15;5.70;;;6.40;96.70;;;;;;4947236;28;20056;-74
2023/01/21 09:36:26;;;;;;;9.80;6.20;;;6.40;96.70;;;;;;4948754;28;20051;-75
2023/01/21 09:38:55;;;;;;;10.98;6.65;;;6.50;96.70;;;;;;4949754;28;20047;-75
2023/01/21 09:41:26;;;;;;;10.82;6.68;;;6.50;96.70;;;;;;4930456;28;20043;-73
2023/01/21 09:44:02;;;;;;;12.23;6.68;;;6.60;96.70;;;;;;4963757;28;20051;-73
2023/01/21 09:46:39;;;;;;;13.10;8.48;;;6.60;96.70;;;;;;4951188;28;20062;-73
2023/01/21 09:49:15;;;;;;;12.77;8.23;;;6.50;96.70;;;;;;4953872;28;20047;-73
2023/01/21 09:51:58;;;;;;;11.50;7.05;;;6.50;96.70;;;;;;4971618;28;20066;-74
2023/01/21 09:54:27;;;;;;;10.45;5.90;;;6.30;96.70;;;;;;4965100;28;20086;-75
2023/01/21 09:57:09;;;;;;;7.78;4.55;;;6.30;96.70;;;;;;4966747;28;20129;-75
2023/01/21 09:59:50;;;;;;;9.50;4.95;;;6.30;96.70;;;;;;4980753;28;20539;-74
2023/01/21 10:02:28;;;;;;;8.13;4.90;;;6.20;96.70;;;;;;4980168;28;20059;-76
2023/01/21 10:05:10;;;;;;;9.45;5.25;;;6.20;96.70;;;;;;4958945;28;20090;-76
2023/01/21 10:07:46;;;;;;;6.40;4.22;;;6.20;96.70;;;;;;4937714;28;20083;-75
2023/01/21 10:10:20;;;;;;;6.82;4.50;;;6.30;96.70;;;;;;4958880;28;20046;-75
2023/01/21 10:13:01;;;;;;;7.63;5.20;;;6.40;96.70;;;;;;4945506;29;20065;-73
2023/01/21 10:15:50;;;;;;;7.40;5.05;;;6.40;96.70;;;;;;4929833;28;20144;-74
2023/01/21 10:18:23;;;;;;;7.55;5.05;;;6.50;96.70;;;;;;4961988;28;20055;-76
2023/01/21 10:20:56;;;;;;;9.13;5.93;;;6.50;96.70;;;;;;4965617;28;20416;-74
2023/01/21 10:23:30;;;;;;;10.88;6.50;;;6.60;96.70;;;;;;4953701;28;20067;-76
2023/01/21 10:26:04;;;;;;;8.57;5.28;;;6.60;96.70;;;;;;4950643;28;20623;-75
2023/01/21 10:28:32;;;;;;;7.05;5.00;;;6.70;96.70;;;;;;4954751;28;20047;-73
2023/01/21 10:31:06;;;;;;;6.35;4.85;;;6.70;96.70;;;;;;4954696;28;20046;-73
2023/01/21 10:33:35;;;;;;;7.40;5.00;;;6.80;96.70;;;;;;4952072;28;20133;-72
2023/01/21 10:36:37;;;;;;;6.93;4.40;;;6.80;96.70;;;;;;4949209;28;20125;-74
2023/01/21 10:39:16;;;;;;;7.80;5.15;;;6.80;96.70;;;;;;4971474;28;20039;-74
2023/01/21 10:42:07;;;;;;;7.50;4.80;;;6.80;96.70;;;;;;4952241;28;20125;-74
2023/01/21 10:44:44;;;;;;;7.78;5.57;;;6.90;96.70;;;;;;4950875;28;20158;-73
2023/01/21 10:47:21;;;;;;;8.98;5.50;;;7.00;96.70;;;;;;4947555;28;20516;-73
2023/01/21 10:49:57;;;;;;;6.03;4.10;;;7.00;96.70;;;;;;4950348;28;20453;-73
2023/01/21 10:52:36;;;;;;;8.30;4.28;;;7.10;96.70;;;;;;4950953;28;20051;-73
2023/01/21 10:55:20;;;;;;;5.10;3.90;;;7.20;96.70;;;;;;4947172;28;20047;-73
2023/01/21 10:57:55;;;;;;;5.65;4.03;;;7.30;96.70;;;;;;4947926;28;20039;-73
2023/01/21 11:00:28;;;;;;;6.10;3.50;;;7.30;96.70;;;;;;4974485;28;20524;-73
2023/01/21 11:03:01;;;;;;;7.60;4.53;;;7.40;96.70;;;;;;4955177;28;20047;-72
2023/01/21 11:05:31;;;;;;;9.35;5.65;;;7.50;96.70;;;;;;4951773;28;20054;-74
2023/01/21 11:08:00;;;;;;;11.38;7.35;;;7.60;96.70;;;;;;4951556;28;20500;-73
2023/01/21 11:10:30;;;;;;;14.10;9.10;;;7.70;96.70;;;;;;4960015;28;20054;-74
2023/01/21 11:12:59;;;;;;;16.10;11.60;;;7.70;96.70;;;;;;4954944;28;20050;-73
2023/01/21 11:15:32;;;;;;;14.10;9.38;;;7.70;96.70;;;;;;4954403;28;20106;-73
2023/01/21 11:18:24;;;;;;;8.85;7.22;;;7.80;96.70;;;;;;4954471;28;20043;-73
2023/01/21 11:20:56;;;;;;;7.15;5.05;;;7.80;96.70;;;;;;4941198;28;20085;-73
2023/01/21 11:23:27;;;;;;;7.97;4.90;;;7.80;96.70;;;;;;4943519;28;20059;-73
2023/01/21 11:26:05;;;;;;;6.53;4.20;;;7.80;96.70;;;;;;4945637;28;20043;-74
2023/01/21 11:28:36;;;;;;;6.93;4.22;;;7.80;96.70;;;;;;4947179;28;20054;-74
2023/01/21 11:31:11;;;;;;;31.67;18.80;;;7.80;96.70;;;;;;4945448;28;20323;-73
2023/01/21 11:33:40;;;;;;;23.98;15.35;;;7.80;96.70;;;;;;4960647;28;20125;-73
2023/01/21 11:36:12;;;;;;;12.00;7.30;;;7.90;96.70;;;;;;4955363;28;20051;-73
2023/01/21 11:38:41;;;;;;;8.82;5.47;;;7.90;96.70;;;;;;4963839;28;20047;-73
2023/01/21 11:41:20;;;;;;;7.07;4.82;;;8.00;96.70;;;;;;4959464;28;20275;-73
2023/01/21 11:43:51;;;;;;;11.27;4.65;;;8.00;96.70;;;;;;4954389;28;20383;-72
2023/01/21 11:46:34;;;;;;;9.48;5.85;;;8.10;96.70;;;;;;4952321;28;20062;-74
2023/01/21 11:49:26;;;;;;;10.00;5.43;;;8.10;96.70;;;;;;4962322;28;20704;-73
2023/01/21 11:52:14;;;;;;;8.07;5.35;;;8.20;96.70;;;;;;4946637;28;20054;-73
2023/01/21 11:54:43;;;;;;;8.05;4.63;;;8.30;96.70;;;;;;4963437;28;20050;-74
2023/01/21 11:57:24;;;;;;;7.35;4.93;;;8.20;96.70;;;;;;4945835;28;20118;-74
2023/01/21 12:00:06;;;;;;;9.18;4.15;;;8.30;96.70;;;;;;4968651;28;20055;-73
2023/01/21 12:02:46;;;;;;;7.80;4.90;;;8.30;96.70;;;;;;4945299;28;20043;-74
2023/01/21 12:05:25;;;;;;;4.35;2.83;;;8.20;96.70;;;;;;4944274;28;20039;-74
2023/01/21 12:07:54;;;;;;;4.70;3.08;;;8.30;96.70;;;;;;4954583;28;20077;-75
2023/01/21 12:10:27;;;;;;;4.90;2.28;;;8.30;96.70;;;;;;4962321;28;20078;-74
2023/01/21 12:13:15;;;;;;;2.40;1.60;;;8.30;96.70;;;;;;4962845;28;20043;-74
2023/01/21 12:16:34;;;;;;;2.42;1.13;;;8.30;96.70;;;;;;4963306;28;20084;-74
2023/01/21 12:19:26;;;;;;;3.80;2.55;;;8.40;96.70;;;;;;4873691;29;20145;-74
2023/01/21 12:22:17;;;;;;;2.05;1.27;;;8.40;96.70;;;;;;4855399;29;20610;-74
2023/01/21 12:25:13;;;;;;;2.65;1.50;;;8.40;96.70;;;;;;4924455;28;20063;-73
2023/01/21 12:27:51;;;;;;;4.22;1.25;;;8.40;96.70;;;;;;4942785;28;20047;-73
2023/01/21 12:30:30;;;;;;;2.10;0.90;;;8.40;96.70;;;;;;4947538;28;20401;-74
2023/01/21 12:33:02;;;;;;;3.08;0.95;;;8.40;96.70;;;;;;4943157;28;20043;-74
2023/01/21 12:35:36;;;;;;;1.83;1.15;;;8.40;96.70;;;;;;4944071;28;20054;-74
2023/01/21 12:38:09;;;;;;;2.72;1.20;;;8.40;96.70;;;;;;4959002;28;20051;-74
2023/01/21 12:40:44;;;;;;;2.15;1.20;;;8.40;96.70;;;;;;4960868;28;20517;-74
2023/01/21 12:43:18;;;;;;;2.90;1.20;;;8.30;96.70;;;;;;4961459;28;20054;-74
2023/01/21 12:45:53;;;;;;;2.85;1.25;;;8.30;96.70;;;;;;4949501;28;20094;-73
2023/01/21 12:48:27;;;;;;;5.65;3.25;;;8.30;96.70;;;;;;4959996;28;20053;-73
2023/01/21 12:51:00;;;;;;;15.65;8.18;;;8.40;96.70;;;;;;4959840;28;20047;-72
2023/01/21 12:53:35;;;;;;;7.90;5.13;;;8.40;96.70;;;;;;4933495;28;20051;-72
2023/01/21 12:56:20;;;;;;;4.03;2.60;;;8.40;96.70;;;;;;4950532;28;20055;-73
2023/01/21 12:58:54;;;;;;;8.48;5.25;;;8.40;96.70;;;;;;4952242;28;20046;-73
2023/01/21 13:01:41;;;;;;;2.72;1.95;;;8.40;96.70;;;;;;4948917;28;20060;-72
2023/01/21 13:04:27;;;;;;;2.25;1.55;;;8.40;96.70;;;;;;4961118;28;20050;-72
2023/01/21 13:07:03;;;;;;;2.83;1.98;;;8.50;96.70;;;;;;4948878;28;20051;-72
2023/01/21 13:09:39;;;;;;;3.05;1.55;;;8.60;96.70;;;;;;4954766;28;20046;-72
2023/01/21 13:12:14;;;;;;;2.28;1.33;;;8.60;96.70;;;;;;4954949;28;20050;-73
2023/01/21 13:14:46;;;;;;;1.52;1.02;;;8.70;96.70;;;;;;4953051;28;20129;-73
2023/01/21 13:17:20;;;;;;;2.10;1.20;;;8.80;96.70;;;;;;4952856;28;20051;-73
2023/01/21 13:19:49;;;;;;;3.72;2.47;;;8.90;96.70;;;;;;4951338;28;20119;-73
2023/01/21 13:22:30;;;;;;;2.78;1.45;;;8.90;96.70;;;;;;4949387;28;20109;-74
2023/01/21 13:25:11;;;;;;;2.08;1.40;;;9.00;96.70;;;;;;4946447;28;20054;-73
2023/01/21 13:27:49;;;;;;;2.90;1.70;;;9.10;96.70;;;;;;4957769;28;20071;-72
2023/01/21 13:30:27;;;;;;;3.35;2.38;;;9.20;96.70;;;;;;4949568;28;20047;-72